Time;durP1;ratioP1;P1;durP2;ratioP2;P2;SDS_P1;SDS_P2;PMS_P1;PMS_P2;Temp;Humidity;BMP_temperature;BMP_pressure;BME280_temperature;BME280_humidity;BME280_pressure;Samples;Min_cycle;Max_cycle;Signal;HPM_P1;HPM_P2
2021/11/27 00:02:23;;;;;;;4.18;1.85;;;;;;;;;;4997907;28;20203;-88
2021/11/27 00:04:49;;;;;;;3.53;1.90;;;;;;;;;;4994957;28;20223;-87
2021/11/27 00:07:15;;;;;;;4.45;2.20;;;;;;;;;;4988832;28;20175;-87
2021/11/27 00:09:41;;;;;;;7.45;2.42;;;;;;;;;;4994313;28;20195;-88
2021/11/27 00:12:07;;;;;;;8.52;2.97;;;;;;;;;;4993413;28;20188;-88
2021/11/27 00:14:34;;;;;;;6.70;2.00;;;;;;;;;;4981779;28;20597;-87
2021/11/27 00:17:01;;;;;;;5.18;2.15;;;;;;;;;;4980691;28;20246;-88
2021/11/27 00:19:27;;;;;;;4.90;2.30;;;;;;;;;;4981616;28;20270;-88
2021/11/27 00:21:53;;;;;;;5.70;1.95;;;;;;;;;;4981094;28;20208;-86
2021/11/27 00:24:19;;;;;;;5.45;2.20;;;;;;;;;;4998969;28;20184;-87
2021/11/27 00:26:45;;;;;;;6.40;1.85;;;;;;;;;;4983051;28;20256;-87
2021/11/27 00:29:11;;;;;;;5.30;2.15;;;;;;;;;;4983479;28;20244;-88
2021/11/27 00:31:41;;;;;;;4.43;2.20;;;;;;;;;;4979012;28;20268;-89
2021/11/27 00:34:07;;;;;;;8.02;2.03;;;;;;;;;;4997317;28;20183;-87
2021/11/27 00:36:37;;;;;;;3.25;2.30;;;;;;;;;;4978158;28;20308;-88
2021/11/27 00:39:04;;;;;;;4.20;2.38;;;;;;;;;;4983432;28;20194;-88
2021/11/27 00:41:30;;;;;;;5.75;2.00;;;;;;;;;;4998072;28;20347;-86
2021/11/27 00:43:56;;;;;;;5.43;1.63;;;;;;;;;;4983090;28;20577;-87
2021/11/27 00:46:22;;;;;;;5.63;2.00;;;;;;;;;;4979464;28;20183;-81
2021/11/27 00:48:48;;;;;;;5.85;1.77;;;;;;;;;;4985232;28;20180;-81
2021/11/27 00:51:17;;;;;;;1.52;1.05;;;;;;;;;;4979501;28;20262;-81
2021/11/27 00:53:43;;;;;;;1.55;0.80;;;;;;;;;;4981517;28;20204;-83
2021/11/27 00:56:09;;;;;;;1.50;1.00;;;;;;;;;;4996617;28;20195;-83
2021/11/27 00:58:35;;;;;;;2.05;1.08;;;;;;;;;;4979092;28;20182;-84
2021/11/27 01:01:04;;;;;;;2.45;1.02;;;;;;;;;;4995194;28;20191;-85
2021/11/27 01:03:31;;;;;;;1.70;0.90;;;;;;;;;;4983141;28;20196;-85
2021/11/27 01:05:58;;;;;;;1.27;0.80;;;;;;;;;;4993805;28;20185;-84
2021/11/27 01:08:25;;;;;;;1.85;0.90;;;;;;;;;;4982714;28;20203;-86
2021/11/27 01:10:53;;;;;;;1.08;0.90;;;;;;;;;;4994698;28;20192;-85
2021/11/27 01:13:20;;;;;;;2.80;1.17;;;;;;;;;;4980795;28;20230;-85
2021/11/27 01:15:46;;;;;;;2.55;1.95;;;;;;;;;;4993080;28;20176;-85
2021/11/27 01:18:12;;;;;;;2.65;1.20;;;;;;;;;;4993133;28;20235;-85
2021/11/27 01:20:51;;;;;;;2.17;1.23;;;;;;;;;;4981334;28;20195;-85
2021/11/27 01:23:17;;;;;;;2.88;1.10;;;;;;;;;;4996677;28;20223;-86
2021/11/27 01:25:46;;;;;;;3.45;1.10;;;;;;;;;;4976961;28;20185;-84
2021/11/27 01:28:15;;;;;;;5.20;1.40;;;;;;;;;;4996648;28;20262;-86
2021/11/27 01:30:41;;;;;;;3.40;0.95;;;;;;;;;;4991460;28;20187;-84
2021/11/27 01:33:07;;;;;;;1.23;0.77;;;;;;;;;;4976562;28;20196;-85
2021/11/27 01:35:34;;;;;;;3.60;1.42;;;;;;;;;;4981723;28;20187;-84
2021/11/27 01:38:00;;;;;;;3.20;1.60;;;;;;;;;;4983255;28;20261;-85
2021/11/27 01:40:26;;;;;;;1.70;1.55;;;;;;;;;;4980333;28;20187;-84
2021/11/27 01:42:54;;;;;;;4.07;1.27;;;;;;;;;;4995239;28;20200;-84
2021/11/27 01:45:20;;;;;;;5.25;1.75;;;;;;;;;;4977626;28;20187;-83
2021/11/27 01:47:51;;;;;;;2.03;1.42;;;;;;;;;;4997544;28;20203;-84
2021/11/27 01:50:17;;;;;;;2.78;1.20;;;;;;;;;;4983273;28;20188;-85
2021/11/27 01:52:43;;;;;;;4.65;1.38;;;;;;;;;;4979186;28;20176;-86
2021/11/27 01:55:10;;;;;;;2.70;1.20;;;;;;;;;;4995580;28;20176;-84
2021/11/27 01:57:36;;;;;;;1.90;1.15;;;;;;;;;;4980914;28;20192;-84
2021/11/27 02:00:05;;;;;;;2.65;1.13;;;;;;;;;;4992342;28;20203;-83
2021/11/27 02:02:31;;;;;;;1.40;1.20;;;;;;;;;;4996044;28;20214;-83
2021/11/27 02:04:57;;;;;;;1.77;1.40;;;;;;;;;;4978952;28;20184;-83
2021/11/27 02:07:23;;;;;;;2.47;1.10;;;;;;;;;;4982716;28;20180;-82
2021/11/27 02:09:49;;;;;;;2.22;1.23;;;;;;;;;;4993391;28;20246;-82
2021/11/27 02:12:15;;;;;;;4.88;1.38;;;;;;;;;;4991051;28;20203;-84
2021/11/27 02:14:41;;;;;;;4.43;1.10;;;;;;;;;;4994636;28;20627;-84
2021/11/27 02:17:09;;;;;;;3.97;1.60;;;;;;;;;;4994877;28;20188;-81
2021/11/27 02:19:35;;;;;;;3.78;1.20;;;;;;;;;;4977029;28;20194;-82
2021/11/27 02:22:01;;;;;;;1.67;1.30;;;;;;;;;;4993704;28;20199;-83
2021/11/27 02:24:27;;;;;;;3.55;1.15;;;;;;;;;;4976554;28;20264;-83
2021/11/27 02:26:54;;;;;;;2.90;1.00;;;;;;;;;;4977289;28;20192;-82
2021/11/27 02:29:31;;;;;;;1.40;0.80;;;;;;;;;;4996249;28;20247;-84
2021/11/27 02:31:58;;;;;;;1.45;1.27;;;;;;;;;;4993442;28;20250;-83
2021/11/27 02:34:24;;;;;;;4.70;0.98;;;;;;;;;;4980349;28;20180;-84
2021/11/27 02:36:56;;;;;;;1.65;1.08;;;;;;;;;;5001562;28;20399;-83
2021/11/27 02:39:23;;;;;;;5.90;1.38;;;;;;;;;;4993696;28;20188;-82
2021/11/27 02:41:53;;;;;;;1.20;0.88;;;;;;;;;;4979012;28;20216;-82
2021/11/27 02:44:19;;;;;;;1.55;1.40;;;;;;;;;;4980911;28;20187;-84
2021/11/27 02:46:45;;;;;;;2.22;1.42;;;;;;;;;;4975876;28;20215;-84
2021/11/27 02:49:11;;;;;;;2.90;1.70;;;;;;;;;;4986144;28;20172;-85
2021/11/27 02:51:37;;;;;;;3.10;1.10;;;;;;;;;;4993807;28;20188;-82
2021/11/27 02:54:04;;;;;;;4.95;1.48;;;;;;;;;;4991049;28;20251;-85
2021/11/27 02:56:30;;;;;;;3.08;0.85;;;;;;;;;;4980538;28;20193;-84
2021/11/27 02:58:56;;;;;;;3.78;1.13;;;;;;;;;;4980256;28;20181;-83
2021/11/27 03:01:23;;;;;;;3.08;1.05;;;;;;;;;;4978587;28;20180;-85
2021/11/27 03:03:49;;;;;;;7.00;1.23;;;;;;;;;;4995010;28;20200;-81
2021/11/27 03:06:15;;;;;;;1.65;1.52;;;;;;;;;;4976332;28;20199;-84
2021/11/27 03:08:41;;;;;;;4.97;1.20;;;;;;;;;;4996525;28;22639;-84
2021/11/27 03:11:07;;;;;;;0.85;0.75;;;;;;;;;;4979798;28;20642;-84
2021/11/27 03:13:34;;;;;;;0.70;0.70;;;;;;;;;;4981694;28;20240;-83
2021/11/27 03:16:01;;;;;;;3.00;1.00;;;;;;;;;;4992666;28;20245;-84
2021/11/27 03:18:27;;;;;;;1.08;0.70;;;;;;;;;;4975382;28;20218;-84
2021/11/27 03:20:53;;;;;;;1.85;1.13;;;;;;;;;;4979989;28;20210;-84
2021/11/27 03:23:19;;;;;;;3.47;1.15;;;;;;;;;;4996830;28;20199;-84
2021/11/27 03:25:45;;;;;;;1.13;1.02;;;;;;;;;;4980948;28;20188;-83
2021/11/27 03:28:11;;;;;;;2.40;1.17;;;;;;;;;;4996825;28;20171;-85
2021/11/27 03:30:38;;;;;;;3.42;0.80;;;;;;;;;;4990741;28;20206;-84
2021/11/27 03:33:04;;;;;;;1.58;0.70;;;;;;;;;;4990562;28;20410;-82
2021/11/27 03:35:30;;;;;;;1.73;0.80;;;;;;;;;;4993218;28;20247;-83
2021/11/27 03:37:56;;;;;;;1.42;1.00;;;;;;;;;;4977365;28;20191;-84
2021/11/27 03:40:24;;;;;;;3.03;1.27;;;;;;;;;;4976502;28;20438;-83
2021/11/27 03:42:50;;;;;;;2.33;1.10;;;;;;;;;;4979767;28;20606;-83
2021/11/27 03:45:19;;;;;;;2.55;0.90;;;;;;;;;;4979820;28;20657;-85
2021/11/27 03:48:04;;;;;;;2.78;1.27;;;;;;;;;;4992074;28;20180;-84
2021/11/27 03:50:31;;;;;;;1.80;0.90;;;;;;;;;;4986330;28;20183;-85
2021/11/27 03:52:57;;;;;;;2.42;1.25;;;;;;;;;;4992976;28;20199;-84
2021/11/27 03:55:23;;;;;;;0.82;0.68;;;;;;;;;;4978250;28;20180;-83
2021/11/27 03:57:49;;;;;;;2.88;1.13;;;;;;;;;;4993917;28;20445;-83
2021/11/27 04:00:15;;;;;;;2.53;1.00;;;;;;;;;;4992173;28;20192;-83
2021/11/27 04:02:42;;;;;;;1.75;1.10;;;;;;;;;;4993714;28;20216;-85
2021/11/27 04:05:08;;;;;;;2.42;1.27;;;;;;;;;;4978287;28;20204;-84
2021/11/27 04:07:34;;;;;;;1.70;1.10;;;;;;;;;;4976181;28;20188;-85
2021/11/27 04:10:00;;;;;;;6.15;2.05;;;;;;;;;;4992149;28;20191;-86
2021/11/27 04:12:26;;;;;;;1.67;0.90;;;;;;;;;;4990033;28;20262;-84
2021/11/27 04:14:52;;;;;;;1.88;0.90;;;;;;;;;;4977627;28;20196;-83
2021/11/27 04:17:18;;;;;;;1.45;1.05;;;;;;;;;;4978912;28;20183;-84
2021/11/27 04:19:44;;;;;;;4.53;0.90;;;;;;;;;;4974780;28;20219;-81
2021/11/27 04:22:10;;;;;;;3.53;1.25;;;;;;;;;;4996733;28;20315;-82
2021/11/27 04:24:38;;;;;;;2.72;1.27;;;;;;;;;;4989452;28;20662;-85
2021/11/27 04:27:05;;;;;;;2.63;0.85;;;;;;;;;;4989973;28;20707;-84
2021/11/27 04:29:31;;;;;;;3.35;0.80;;;;;;;;;;4995549;28;20184;-85
2021/11/27 04:31:57;;;;;;;1.45;1.05;;;;;;;;;;4991507;28;20192;-82
2021/11/27 04:34:23;;;;;;;3.00;0.93;;;;;;;;;;4977856;28;20207;-82
2021/11/27 04:36:49;;;;;;;6.38;1.35;;;;;;;;;;4991315;28;20180;-84
2021/11/27 04:39:15;;;;;;;2.55;0.90;;;;;;;;;;4987639;28;20391;-82
2021/11/27 04:41:41;;;;;;;3.85;0.90;;;;;;;;;;4969771;28;20203;-82
2021/11/27 04:44:07;;;;;;;1.40;0.90;;;;;;;;;;4992801;28;20204;-83
2021/11/27 04:46:33;;;;;;;2.58;1.23;;;;;;;;;;4978006;28;20525;-83
2021/11/27 04:48:59;;;;;;;5.85;0.90;;;;;;;;;;4999074;28;20180;-81
2021/11/27 04:51:25;;;;;;;1.40;0.90;;;;;;;;;;4994171;28;20184;-80
2021/11/27 04:53:51;;;;;;;3.30;1.08;;;;;;;;;;4994386;28;20192;-83
2021/11/27 04:56:17;;;;;;;1.27;1.17;;;;;;;;;;4982415;28;20719;-82
2021/11/27 04:58:43;;;;;;;2.97;1.10;;;;;;;;;;4977421;28;20211;-82
2021/11/27 05:01:10;;;;;;;2.25;1.08;;;;;;;;;;4981615;28;20530;-81
2021/11/27 05:03:36;;;;;;;3.42;1.05;;;;;;;;;;4978349;28;20207;-81
2021/11/27 05:06:02;;;;;;;4.75;1.30;;;;;;;;;;4976767;28;20263;-82
2021/11/27 05:08:28;;;;;;;11.50;1.42;;;;;;;;;;4982836;28;20184;-83
2021/11/27 05:10:54;;;;;;;1.27;1.02;;;;;;;;;;4994432;28;20275;-82
2021/11/27 05:13:20;;;;;;;3.10;2.05;;;;;;;;;;4981244;28;20227;-78
2021/11/27 05:15:46;;;;;;;3.38;1.25;;;;;;;;;;4992816;28;20192;-81
2021/11/27 05:18:13;;;;;;;1.83;1.25;;;;;;;;;;4992844;28;20200;-82
2021/11/27 05:20:39;;;;;;;5.10;1.27;;;;;;;;;;4979974;28;20222;-81
2021/11/27 05:23:06;;;;;;;3.78;1.35;;;;;;;;;;4997320;28;20208;-81
2021/11/27 05:25:32;;;;;;;1.73;1.45;;;;;;;;;;4979723;28;20184;-81
2021/11/27 05:27:58;;;;;;;2.72;1.20;;;;;;;;;;4971432;28;20181;-81
2021/11/27 05:30:27;;;;;;;3.15;1.35;;;;;;;;;;4990500;28;20202;-80
2021/11/27 05:33:07;;;;;;;3.45;1.00;;;;;;;;;;4994168;28;20187;-80
2021/11/27 05:35:33;;;;;;;5.70;2.20;;;;;;;;;;4979828;28;20191;-81
2021/11/27 05:38:00;;;;;;;1.85;0.90;;;;;;;;;;4996382;28;20219;-81
2021/11/27 05:40:26;;;;;;;8.40;2.28;;;;;;;;;;4978445;28;20262;-82
2021/11/27 05:42:52;;;;;;;5.25;1.38;;;;;;;;;;4978684;28;20388;-81
2021/11/27 05:45:19;;;;;;;4.90;1.17;;;;;;;;;;4976446;28;20204;-81
2021/11/27 05:47:45;;;;;;;6.20;1.88;;;;;;;;;;4994371;28;20276;-81
2021/11/27 05:50:11;;;;;;;2.38;1.10;;;;;;;;;;4995152;28;20661;-81
2021/11/27 05:52:38;;;;;;;5.18;1.05;;;;;;;;;;4977430;28;20187;-81
2021/11/27 05:55:05;;;;;;;3.30;1.50;;;;;;;;;;4994751;28;20180;-81
2021/11/27 05:57:31;;;;;;;2.88;1.23;;;;;;;;;;4990853;28;20199;-79
2021/11/27 05:59:59;;;;;;;4.72;2.35;;;;;;;;;;4992444;28;20190;-81
2021/11/27 06:02:24;;;;;;;1.60;1.40;;;;;;;;;;4996468;28;20227;-82
2021/11/27 06:04:51;;;;;;;3.80;1.80;;;;;;;;;;4992585;28;20267;-81
2021/11/27 06:07:17;;;;;;;3.00;1.17;;;;;;;;;;4979942;28;20222;-81
2021/11/27 06:09:43;;;;;;;3.15;1.45;;;;;;;;;;4980501;28;20214;-80
2021/11/27 06:12:09;;;;;;;5.28;1.23;;;;;;;;;;4976682;28;20197;-81
2021/11/27 06:14:35;;;;;;;1.77;0.85;;;;;;;;;;4980660;28;20198;-79
2021/11/27 06:17:02;;;;;;;10.93;2.03;;;;;;;;;;4978048;28;20211;-80
2021/11/27 06:19:28;;;;;;;4.43;1.50;;;;;;;;;;4978916;28;20208;-81
2021/11/27 06:21:54;;;;;;;3.05;1.27;;;;;;;;;;4993556;28;20668;-79
2021/11/27 06:24:20;;;;;;;3.05;1.45;;;;;;;;;;4991484;28;20769;-81
2021/11/27 06:26:46;;;;;;;2.83;1.75;;;;;;;;;;4978736;28;20189;-82
2021/11/27 06:29:12;;;;;;;3.85;1.15;;;;;;;;;;4994536;28;20234;-81
2021/11/27 06:31:38;;;;;;;4.40;1.70;;;;;;;;;;4977602;28;20176;-83
2021/11/27 06:34:04;;;;;;;9.45;1.55;;;;;;;;;;4997042;28;20176;-86
2021/11/27 06:36:31;;;;;;;2.15;1.38;;;;;;;;;;4991153;28;20291;-81
2021/11/27 06:38:57;;;;;;;3.13;1.10;;;;;;;;;;4977807;28;20646;-84
2021/11/27 06:41:23;;;;;;;5.05;1.02;;;;;;;;;;4995898;28;20198;-83
2021/11/27 06:43:49;;;;;;;1.88;1.05;;;;;;;;;;4992032;28;20207;-86
2021/11/27 06:46:15;;;;;;;3.45;1.10;;;;;;;;;;4999719;28;20199;-86
2021/11/27 06:48:41;;;;;;;1.67;0.90;;;;;;;;;;4991208;28;20251;-85
2021/11/27 06:51:07;;;;;;;3.45;1.20;;;;;;;;;;5008293;28;20219;-83
2021/11/27 06:53:33;;;;;;;8.75;1.52;;;;;;;;;;4979191;28;20180;-83
2021/11/27 06:56:00;;;;;;;3.28;1.40;;;;;;;;;;4977544;28;20267;-83
2021/11/27 06:58:26;;;;;;;4.32;1.42;;;;;;;;;;4980735;28;20684;-84
2021/11/27 07:00:52;;;;;;;4.05;1.50;;;;;;;;;;4993541;28;20192;-84
2021/11/27 07:03:18;;;;;;;3.45;1.17;;;;;;;;;;4976071;28;20253;-86
2021/11/27 07:05:44;;;;;;;4.95;1.40;;;;;;;;;;4978208;28;20180;-85
2021/11/27 07:08:10;;;;;;;4.88;1.08;;;;;;;;;;4996022;28;20202;-87
2021/11/27 07:10:36;;;;;;;2.05;1.27;;;;;;;;;;4976098;28;20203;-86
2021/11/27 07:13:03;;;;;;;8.02;1.30;;;;;;;;;;4992326;28;20735;-83
2021/11/27 07:15:29;;;;;;;2.60;1.55;;;;;;;;;;4990243;28;20203;-86
2021/11/27 07:17:55;;;;;;;4.22;1.30;;;;;;;;;;4995564;28;20207;-85
2021/11/27 07:20:21;;;;;;;3.45;1.50;;;;;;;;;;4971438;28;20191;-86
2021/11/27 07:22:47;;;;;;;2.03;1.10;;;;;;;;;;4977678;28;20243;-86
2021/11/27 07:25:13;;;;;;;1.30;1.13;;;;;;;;;;4994561;28;20190;-87
2021/11/27 07:27:39;;;;;;;4.55;1.52;;;;;;;;;;4998053;28;20180;-86
2021/11/27 07:30:06;;;;;;;1.55;0.95;;;;;;;;;;4990967;28;20199;-85
2021/11/27 07:32:32;;;;;;;1.95;1.13;;;;;;;;;;4978083;28;20192;-88
2021/11/27 07:34:58;;;;;;;4.43;1.15;;;;;;;;;;4980010;28;20192;-85
2021/11/27 07:37:24;;;;;;;1.58;0.80;;;;;;;;;;4978300;28;20188;-82
2021/11/27 07:39:50;;;;;;;6.18;1.63;;;;;;;;;;4979782;28;20199;-86
2021/11/27 07:42:16;;;;;;;4.15;1.10;;;;;;;;;;4994623;28;20211;-82
2021/11/27 07:44:42;;;;;;;2.83;1.15;;;;;;;;;;4974865;28;20199;-85
2021/11/27 07:47:08;;;;;;;1.63;1.25;;;;;;;;;;4986585;28;20203;-83
2021/11/27 07:49:34;;;;;;;1.40;1.00;;;;;;;;;;4981919;28;20216;-83
2021/11/27 07:52:00;;;;;;;4.80;1.10;;;;;;;;;;4969132;28;20184;-81
2021/11/27 07:54:26;;;;;;;1.70;1.23;;;;;;;;;;4972500;28;20176;-82
2021/11/27 07:56:53;;;;;;;1.17;0.77;;;;;;;;;;4991422;28;20199;-84
2021/11/27 07:59:19;;;;;;;2.65;0.90;;;;;;;;;;4990426;28;20184;-83
2021/11/27 08:01:45;;;;;;;1.25;1.05;;;;;;;;;;4977990;28;20196;-83
2021/11/27 08:04:11;;;;;;;1.20;0.90;;;;;;;;;;4978940;28;20184;-82
2021/11/27 08:06:37;;;;;;;1.52;1.15;;;;;;;;;;4990277;28;20243;-83
2021/11/27 08:09:03;;;;;;;1.23;0.90;;;;;;;;;;4987569;28;20219;-85
2021/11/27 08:11:29;;;;;;;0.90;0.90;;;;;;;;;;4972743;28;20311;-82
2021/11/27 08:13:55;;;;;;;1.00;0.90;;;;;;;;;;4998995;28;20235;-83
2021/11/27 08:16:21;;;;;;;3.25;0.80;;;;;;;;;;4982713;28;20203;-82
2021/11/27 08:18:47;;;;;;;6.03;1.63;;;;;;;;;;4998437;28;20180;-83
2021/11/27 08:21:13;;;;;;;1.02;0.90;;;;;;;;;;4975022;28;20204;-85
2021/11/27 08:23:40;;;;;;;1.25;0.63;;;;;;;;;;4997044;28;20235;-86
2021/11/27 08:26:06;;;;;;;1.42;1.00;;;;;;;;;;4998658;28;20192;-84
2021/11/27 08:28:32;;;;;;;1.02;0.80;;;;;;;;;;4981279;28;20176;-83
2021/11/27 08:30:58;;;;;;;1.05;0.60;;;;;;;;;;4980238;28;20239;-83
2021/11/27 08:33:24;;;;;;;1.20;0.73;;;;;;;;;;4980803;28;20180;-84
2021/11/27 08:35:50;;;;;;;1.15;1.00;;;;;;;;;;4998932;28;20211;-83
2021/11/27 08:38:16;;;;;;;1.40;0.68;;;;;;;;;;5007331;28;20215;-86
2021/11/27 08:40:43;;;;;;;1.98;0.70;;;;;;;;;;4978440;28;20195;-82
2021/11/27 08:43:10;;;;;;;1.40;1.20;;;;;;;;;;5002166;28;20207;-84
2021/11/27 08:45:36;;;;;;;1.52;0.88;;;;;;;;;;4994923;28;20188;-81
2021/11/27 08:48:02;;;;;;;2.55;0.90;;;;;;;;;;4980908;28;20275;-82
2021/11/27 08:50:28;;;;;;;1.98;0.80;;;;;;;;;;4998043;28;20720;-84
2021/11/27 08:52:53;;;;;;;1.05;0.70;;;;;;;;;;4998304;28;20196;-87
2021/11/27 08:55:20;;;;;;;1.60;0.82;;;;;;;;;;4981298;28;20184;-83
2021/11/27 08:57:46;;;;;;;0.90;0.80;;;;;;;;;;4995628;28;20180;-85
2021/11/27 09:00:12;;;;;;;2.20;0.90;;;;;;;;;;4992445;28;20192;-83
2021/11/27 09:02:39;;;;;;;1.63;1.17;;;;;;;;;;4996733;28;20580;-84
2021/11/27 09:05:06;;;;;;;1.48;0.95;;;;;;;;;;4995814;28;20286;-81
2021/11/27 09:07:32;;;;;;;0.90;0.77;;;;;;;;;;5000819;28;20179;-88
2021/11/27 09:09:58;;;;;;;5.28;1.05;;;;;;;;;;4995248;28;20183;-85
2021/11/27 09:12:24;;;;;;;2.95;1.23;;;;;;;;;;4998102;28;20212;-85
2021/11/27 09:14:50;;;;;;;2.78;0.98;;;;;;;;;;4982763;28;20180;-87
2021/11/27 09:17:16;;;;;;;1.52;0.70;;;;;;;;;;5000398;28;20184;-83
2021/11/27 09:19:44;;;;;;;2.10;0.80;;;;;;;;;;4980997;28;20279;-88
2021/11/27 09:22:10;;;;;;;2.53;0.88;;;;;;;;;;4980581;28;20199;-88
2021/11/27 09:24:36;;;;;;;1.40;0.70;;;;;;;;;;5000895;28;20247;-90
2021/11/27 09:27:02;;;;;;;0.90;0.80;;;;;;;;;;4992339;28;20223;-84
2021/11/27 09:29:28;;;;;;;0.75;0.70;;;;;;;;;;4982175;28;20195;-93
2021/11/27 09:31:54;;;;;;;1.40;0.85;;;;;;;;;;4979525;28;20256;-86
2021/11/27 09:34:20;;;;;;;0.90;0.90;;;;;;;;;;4980234;28;20184;-91
2021/11/27 09:36:48;;;;;;;1.40;0.90;;;;;;;;;;4994248;28;20199;-89
2021/11/27 09:39:14;;;;;;;1.02;0.68;;;;;;;;;;4994187;28;20251;-88
2021/11/27 09:41:42;;;;;;;2.42;1.10;;;;;;;;;;4995193;28;20212;-86
2021/11/27 09:44:10;;;;;;;2.35;1.10;;;;;;;;;;4996611;28;20200;-88
2021/11/27 09:46:38;;;;;;;1.30;0.85;;;;;;;;;;4978500;28;20172;-87
2021/11/27 09:49:06;;;;;;;0.88;0.80;;;;;;;;;;4982759;28;20230;-89
2021/11/27 09:51:34;;;;;;;1.35;0.90;;;;;;;;;;4983871;28;20258;-92
2021/11/27 09:54:01;;;;;;;2.42;1.42;;;;;;;;;;4979538;28;20184;-88
2021/11/27 09:56:27;;;;;;;0.98;0.90;;;;;;;;;;4997361;28;20188;-89
2021/11/27 09:58:54;;;;;;;1.02;0.70;;;;;;;;;;4994304;28;20671;-84
2021/11/27 10:01:24;;;;;;;2.08;1.00;;;;;;;;;;4980935;28;20209;-94
2021/11/27 10:03:59;;;;;;;2.50;2.00;;;;;;;;;;4998712;28;20207;-86
2021/11/27 10:06:26;;;;;;;1.55;1.40;;;;;;;;;;4981624;28;20179;-88
2021/11/27 10:08:52;;;;;;;3.38;1.42;;;;;;;;;;4994679;28;20227;-90
2021/11/27 10:11:18;;;;;;;1.10;1.00;;;;;;;;;;4987080;28;20180;-87
2021/11/27 10:13:44;;;;;;;1.45;1.20;;;;;;;;;;4981968;28;20328;-88
2021/11/27 10:16:13;;;;;;;2.15;0.75;;;;;;;;;;4996834;28;20200;-91
2021/11/27 10:18:39;;;;;;;3.47;0.85;;;;;;;;;;4992447;28;20194;-92
2021/11/27 10:21:14;;;;;;;6.93;1.48;;;;;;;;;;4982673;28;20219;-90
2021/11/27 10:23:41;;;;;;;2.03;1.02;;;;;;;;;;4996552;28;20215;-95
2021/11/27 10:26:07;;;;;;;1.55;1.15;;;;;;;;;;4994316;28;20645;-84
2021/11/27 10:28:34;;;;;;;2.35;1.45;;;;;;;;;;4979320;28;20199;-87
2021/11/27 10:31:03;;;;;;;1.95;0.90;;;;;;;;;;4990578;28;20248;-87
2021/11/27 10:33:36;;;;;;;1.40;1.30;;;;;;;;;;5011604;28;20191;-88
2021/11/27 10:36:10;;;;;;;2.65;1.05;;;;;;;;;;4991900;28;20199;-89
2021/11/27 10:38:46;;;;;;;1.90;1.13;;;;;;;;;;4997036;28;20255;-88
2021/11/27 10:41:14;;;;;;;2.20;1.60;;;;;;;;;;4980922;28;20195;-93
2021/11/27 10:43:57;;;;;;;3.35;0.90;;;;;;;;;;4995916;28;20224;-86
2021/11/27 10:46:28;;;;;;;3.47;1.23;;;;;;;;;;4996064;28;20586;-84
2021/11/27 10:48:54;;;;;;;1.92;0.95;;;;;;;;;;4994995;28;20210;-91
2021/11/27 10:51:26;;;;;;;2.60;1.40;;;;;;;;;;4973798;28;20375;-89
2021/11/27 10:53:53;;;;;;;1.45;1.23;;;;;;;;;;5006775;28;20192;-89
2021/11/27 10:56:19;;;;;;;1.40;1.30;;;;;;;;;;4996950;28;20587;-90
2021/11/27 10:58:59;;;;;;;2.58;1.02;;;;;;;;;;4977117;28;20216;-89
2021/11/27 11:01:25;;;;;;;2.72;1.50;;;;;;;;;;4996686;28;20251;-88
2021/11/27 11:03:51;;;;;;;2.17;1.20;;;;;;;;;;4993172;28;20271;-94
2021/11/27 11:06:21;;;;;;;3.72;1.58;;;;;;;;;;4992308;28;20245;-92
2021/11/27 11:08:49;;;;;;;4.00;1.00;;;;;;;;;;4993763;28;20180;-90
2021/11/27 11:11:23;;;;;;;2.45;1.15;;;;;;;;;;4995159;28;20715;-87
2021/11/27 11:13:54;;;;;;;3.15;1.30;;;;;;;;;;4976634;28;20234;-93
2021/11/27 11:16:21;;;;;;;1.00;0.82;;;;;;;;;;5000460;28;20180;-92
2021/11/27 11:18:51;;;;;;;2.58;1.20;;;;;;;;;;4993907;28;20176;-95
2021/11/27 11:21:17;;;;;;;2.17;1.20;;;;;;;;;;4975654;28;20227;-94
2021/11/27 11:23:46;;;;;;;1.20;1.10;;;;;;;;;;4993867;28;20220;-92
2021/11/27 11:26:18;;;;;;;1.90;1.20;;;;;;;;;;4996568;28;20187;-90
2021/11/27 11:28:44;;;;;;;3.05;1.00;;;;;;;;;;4977284;28;20172;-88
2021/11/27 11:31:21;;;;;;;1.30;1.00;;;;;;;;;;4994719;28;20526;-92
2021/11/27 11:33:50;;;;;;;1.77;1.02;;;;;;;;;;4994071;28;20184;-94
2021/11/27 11:36:17;;;;;;;2.25;1.38;;;;;;;;;;4991556;28;20194;-85
2021/11/27 11:38:44;;;;;;;1.33;1.08;;;;;;;;;;4978641;28;20243;-88
2021/11/27 11:41:11;;;;;;;1.90;1.20;;;;;;;;;;4981172;28;20208;-85
2021/11/27 11:43:37;;;;;;;2.55;1.30;;;;;;;;;;4980463;28;20214;-85
2021/11/27 11:46:04;;;;;;;2.65;1.40;;;;;;;;;;4993577;28;20183;-87
2021/11/27 11:48:30;;;;;;;1.67;1.02;;;;;;;;;;4991803;28;20187;-87
2021/11/27 11:50:59;;;;;;;2.38;1.55;;;;;;;;;;4996170;28;20647;-86
2021/11/27 11:53:28;;;;;;;2.92;1.00;;;;;;;;;;4979663;28;20180;-86
2021/11/27 11:55:59;;;;;;;2.45;1.40;;;;;;;;;;4995224;28;20231;-86
2021/11/27 11:58:25;;;;;;;1.30;1.20;;;;;;;;;;4981525;28;20190;-86
2021/11/27 12:00:55;;;;;;;2.28;1.20;;;;;;;;;;4996462;28;20168;-85
2021/11/27 12:03:22;;;;;;;1.60;0.93;;;;;;;;;;4994734;28;20211;-85
2021/11/27 12:05:55;;;;;;;3.95;1.20;;;;;;;;;;4996998;28;20187;-89
2021/11/27 12:08:39;;;;;;;1.30;1.05;;;;;;;;;;4998910;28;20190;-90
2021/11/27 12:11:05;;;;;;;1.50;1.15;;;;;;;;;;4981971;28;20185;-87
2021/11/27 12:13:33;;;;;;;1.80;1.70;;;;;;;;;;4980936;28;20584;-86
2021/11/27 12:16:03;;;;;;;2.28;2.17;;;;;;;;;;4980026;28;20188;-85
2021/11/27 12:18:29;;;;;;;1.33;1.23;;;;;;;;;;4995039;28;20187;-86
2021/11/27 12:20:56;;;;;;;2.80;1.50;;;;;;;;;;4995630;28;20200;-87
2021/11/27 12:23:29;;;;;;;1.17;1.00;;;;;;;;;;4998858;28;20200;-89
2021/11/27 12:26:08;;;;;;;1.45;1.13;;;;;;;;;;4995607;28;20188;-85
2021/11/27 12:28:34;;;;;;;6.07;5.63;;;;;;;;;;4981354;28;20258;-87
2021/11/27 12:31:02;;;;;;;3.80;3.60;;;;;;;;;;4980933;28;20199;-85
2021/11/27 12:33:40;;;;;;;2.65;2.45;;;;;;;;;;4999165;28;20482;-87
2021/11/27 12:36:07;;;;;;;1.50;1.40;;;;;;;;;;4996507;28;20199;-85
2021/11/27 12:38:33;;;;;;;1.80;1.63;;;;;;;;;;4999088;28;20188;-86
2021/11/27 12:41:00;;;;;;;1.42;1.20;;;;;;;;;;4998474;28;20184;-87
2021/11/27 12:43:26;;;;;;;9.85;7.45;;;;;;;;;;4982131;28;20694;-86
2021/11/27 12:45:54;;;;;;;1.73;1.63;;;;;;;;;;4976647;28;20238;-86
2021/11/27 12:48:29;;;;;;;1.40;1.10;;;;;;;;;;4982117;28;20196;-85
2021/11/27 12:51:14;;;;;;;3.40;2.83;;;;;;;;;;4979722;28;20180;-88
2021/11/27 12:53:40;;;;;;;6.38;2.63;;;;;;;;;;4975847;28;20183;-88
2021/11/27 12:56:06;;;;;;;1.70;1.27;;;;;;;;;;4998985;28;20195;-87
2021/11/27 12:58:33;;;;;;;3.30;2.40;;;;;;;;;;4980631;28;20191;-88
2021/11/27 13:00:59;;;;;;;31.20;20.50;;;;;;;;;;4998959;28;20529;-86
2021/11/27 13:03:25;;;;;;;74.78;41.85;;;;;;;;;;4993476;28;20666;-90
2021/11/27 13:05:51;;;;;;;50.17;33.03;;;;;;;;;;4995714;28;20189;-92
2021/11/27 13:08:25;;;;;;;11.82;9.70;;;;;;;;;;4998096;28;20180;-91
2021/11/27 13:10:53;;;;;;;1.90;1.80;;;;;;;;;;4994153;28;20211;-89
2021/11/27 13:13:23;;;;;;;1.23;1.13;;;;;;;;;;5002686;28;20251;-90
2021/11/27 13:15:51;;;;;;;1.92;1.63;;;;;;;;;;4996036;28;20641;-90
2021/11/27 13:18:19;;;;;;;3.38;3.08;;;;;;;;;;4979460;28;20212;-89
2021/11/27 13:20:45;;;;;;;7.50;6.90;;;;;;;;;;4996048;28;20188;-90
2021/11/27 13:23:11;;;;;;;3.75;1.90;;;;;;;;;;4981662;28;20631;-88
2021/11/27 13:25:45;;;;;;;2.25;1.30;;;;;;;;;;4980489;28;20223;-90
2021/11/27 13:28:20;;;;;;;1.38;1.25;;;;;;;;;;4996655;28;20164;-90
2021/11/27 13:30:46;;;;;;;1.17;1.08;;;;;;;;;;4994755;28;20180;-92
2021/11/27 13:33:13;;;;;;;1.42;1.13;;;;;;;;;;5004247;28;20192;-94
2021/11/27 13:35:39;;;;;;;2.03;1.58;;;;;;;;;;4997735;28;20195;-93
2021/11/27 13:38:07;;;;;;;5.65;2.00;;;;;;;;;;4980462;28;20184;-92
2021/11/27 13:40:39;;;;;;;1.35;1.10;;;;;;;;;;4997020;28;20175;-93
2021/11/27 13:43:10;;;;;;;1.52;1.23;;;;;;;;;;4997106;28;20208;-94
2021/11/27 13:45:40;;;;;;;1.58;1.48;;;;;;;;;;4995781;28;20188;-91
2021/11/27 13:48:08;;;;;;;1.42;1.33;;;;;;;;;;4994900;28;20243;-94
2021/11/27 13:51:15;;;;;;;;;;;;;;;;;;;;;
2021/11/27 14:06:00;;;;;;;1.80;1.30;;;;;;;;;;4946947;28;20193;-93
2021/11/27 14:08:27;;;;;;;1.77;1.60;;;;;;;;;;4940820;29;20188;-85
2021/11/27 14:11:12;;;;;;;1.98;1.80;;;;;;;;;;4942145;29;20220;-91
2021/11/27 14:14:03;;;;;;;2.25;2.05;;;;;;;;;;4946816;29;20308;-95
2021/11/27 14:16:31;;;;;;;1.73;1.63;;;;;;;;;;4928497;29;20197;-91
2021/11/27 14:19:28;;;;;;;1.80;1.55;;;;;;;;;;4944750;28;20181;-94
2021/11/27 14:22:03;;;;;;;2.10;1.75;;;;;;;;;;4927594;29;20220;-90
2021/11/27 14:24:39;;;;;;;1.50;1.40;;;;;;;;;;4926383;29;20189;-92
2021/11/27 14:30:37;;;;;;;2.00;1.80;;;;;;;;;;4929424;29;20254;-92
2021/11/27 14:33:30;;;;;;;2.60;1.90;;;;;;;;;;4916057;29;20194;-93
2021/11/27 14:35:59;;;;;;;1.95;1.80;;;;;;;;;;4925381;29;20198;-90
2021/11/27 14:38:52;;;;;;;3.03;2.08;;;;;;;;;;4939440;29;20185;-89
2021/11/27 14:41:28;;;;;;;2.45;2.25;;;;;;;;;;4950288;28;20461;-90
2021/11/27 14:44:06;;;;;;;2.88;2.42;;;;;;;;;;4963184;28;20219;-89
2021/11/27 14:46:35;;;;;;;3.10;2.58;;;;;;;;;;4995704;28;20203;-93
2021/11/27 14:49:20;;;;;;;3.22;2.50;;;;;;;;;;4993724;28;20258;-87
2021/11/27 14:51:46;;;;;;;3.22;2.60;;;;;;;;;;4993908;28;20193;-91
2021/11/27 14:54:20;;;;;;;2.22;2.08;;;;;;;;;;4992537;28;20192;-92
2021/11/27 14:56:47;;;;;;;2.30;2.10;;;;;;;;;;4993966;28;20215;-91
2021/11/27 14:59:13;;;;;;;3.00;2.70;;;;;;;;;;4997219;28;20188;-82
2021/11/27 15:01:39;;;;;;;2.20;2.00;;;;;;;;;;4977541;28;20194;-88
2021/11/27 15:04:05;;;;;;;3.03;1.92;;;;;;;;;;4995889;28;20207;-90